Time;durP1;ratioP1;P1;durP2;ratioP2;P2;SDS_P1;SDS_P2;PMS_P1;PMS_P2;Temp;Humidity;BMP_temperature;BMP_pressure;BME280_temperature;BME280_humidity;BME280_pressure;Samples;Min_cycle;Max_cycle;Signal;HPM_P1;HPM_P2
2023/04/26 00:02:10;;;;;;;40.72;16.55;;;5.60;99.90;;;;;;4990423;28;20034;-74
2023/04/26 00:04:39;;;;;;;41.92;16.40;;;5.50;99.90;;;;;;4991622;28;20038;-74
2023/04/26 00:07:06;;;;;;;39.33;15.75;;;5.50;99.90;;;;;;4990802;28;20096;-73
2023/04/26 00:09:32;;;;;;;35.65;15.02;;;5.50;99.90;;;;;;4991927;28;20066;-74
2023/04/26 00:11:58;;;;;;;41.22;15.82;;;5.60;99.90;;;;;;5004922;28;20030;-74
2023/04/26 00:14:23;;;;;;;42.67;16.40;;;5.60;99.90;;;;;;4990579;28;20030;-74
2023/04/26 00:16:49;;;;;;;43.55;17.05;;;5.60;99.90;;;;;;4972663;28;20026;-75
2023/04/26 00:19:15;;;;;;;45.83;17.48;;;5.60;99.90;;;;;;4991551;28;20026;-74
2023/04/26 00:21:41;;;;;;;43.17;16.85;;;5.60;99.90;;;;;;4992092;28;20427;-74
2023/04/26 00:24:07;;;;;;;39.10;16.52;;;5.60;99.90;;;;;;4989813;28;20030;-74
2023/04/26 00:26:33;;;;;;;37.33;16.65;;;5.60;99.90;;;;;;4973255;28;20058;-75
2023/04/26 00:29:00;;;;;;;35.70;15.32;;;5.60;99.90;;;;;;4991241;28;20142;-75
2023/04/26 00:31:25;;;;;;;45.33;16.35;;;5.50;99.90;;;;;;4990579;28;20463;-75
2023/04/26 00:33:51;;;;;;;41.08;16.38;;;5.50;99.90;;;;;;4983507;28;20062;-76
2023/04/26 00:36:18;;;;;;;40.92;15.35;;;5.40;99.90;;;;;;4984143;28;20667;-74
2023/04/26 00:38:44;;;;;;;44.65;16.65;;;5.40;99.90;;;;;;4990539;28;20038;-75
2023/04/26 00:41:10;;;;;;;39.35;16.48;;;5.30;99.90;;;;;;4989480;28;20085;-75
2023/04/26 00:43:36;;;;;;;38.22;15.65;;;5.30;99.90;;;;;;4971795;28;20046;-75
2023/04/26 00:46:02;;;;;;;41.70;16.45;;;5.30;99.90;;;;;;4989518;28;20057;-74
2023/04/26 00:48:28;;;;;;;43.53;18.42;;;5.20;99.90;;;;;;4989781;28;20038;-74
2023/04/26 00:50:54;;;;;;;43.80;17.17;;;5.20;99.90;;;;;;4990090;28;20126;-73
2023/04/26 00:53:20;;;;;;;47.67;18.08;;;5.10;99.90;;;;;;4991309;28;20391;-75
2023/04/26 00:55:46;;;;;;;39.92;15.82;;;5.10;99.90;;;;;;4990394;28;20042;-75
2023/04/26 00:58:12;;;;;;;33.55;14.38;;;5.10;99.90;;;;;;4990712;28;20030;-75
2023/04/26 01:00:38;;;;;;;32.70;14.13;;;5.00;99.90;;;;;;4989581;28;20034;-75
2023/04/26 01:03:03;;;;;;;30.15;12.80;;;5.00;99.90;;;;;;4990611;28;20532;-75
2023/04/26 01:05:29;;;;;;;32.60;13.27;;;4.90;99.90;;;;;;4990232;28;20065;-75
2023/04/26 01:07:55;;;;;;;31.52;13.52;;;4.90;99.90;;;;;;4988948;28;20074;-75
2023/04/26 01:10:21;;;;;;;30.58;13.20;;;4.90;99.90;;;;;;4990934;28;20038;-75
2023/04/26 01:12:47;;;;;;;34.67;13.85;;;4.90;99.90;;;;;;4972536;28;20117;-75
2023/04/26 01:15:13;;;;;;;43.22;15.90;;;4.90;99.90;;;;;;4987711;28;20106;-75
2023/04/26 01:17:38;;;;;;;34.03;14.52;;;4.90;99.90;;;;;;4989695;28;20113;-75
2023/04/26 01:20:05;;;;;;;35.22;14.70;;;4.90;99.90;;;;;;4988928;28;20034;-75
2023/04/26 01:22:35;;;;;;;32.40;13.80;;;4.90;99.90;;;;;;4989644;28;20026;-75
2023/04/26 01:25:02;;;;;;;31.60;13.40;;;4.90;99.90;;;;;;4988644;28;20386;-75
2023/04/26 01:27:28;;;;;;;32.40;12.82;;;5.00;99.90;;;;;;4986418;28;20299;-74
2023/04/26 01:29:54;;;;;;;28.45;12.65;;;4.90;99.90;;;;;;4989268;28;20570;-75
2023/04/26 01:32:19;;;;;;;29.35;12.38;;;4.80;99.90;;;;;;4988928;28;20483;-75
2023/04/26 01:34:45;;;;;;;30.80;13.23;;;4.80;99.90;;;;;;4989529;28;20377;-75
2023/04/26 01:37:11;;;;;;;27.17;11.82;;;4.80;99.90;;;;;;4979756;28;20041;-75
2023/04/26 01:39:37;;;;;;;29.23;12.05;;;4.70;99.90;;;;;;4989565;28;20491;-75
2023/04/26 01:42:03;;;;;;;29.45;12.10;;;4.70;99.90;;;;;;4989133;28;20034;-75
2023/04/26 01:44:29;;;;;;;131.25;12.45;;;4.70;99.90;;;;;;4989912;28;20062;-75
2023/04/26 01:46:55;;;;;;;51.58;11.65;;;4.60;99.90;;;;;;4987325;28;20487;-75
2023/04/26 01:49:21;;;;;;;27.75;12.00;;;4.50;99.90;;;;;;4988400;28;20116;-75
2023/04/26 01:51:47;;;;;;;27.48;10.68;;;4.50;99.90;;;;;;4989005;28;20045;-75
2023/04/26 01:54:12;;;;;;;26.48;10.60;;;4.30;99.90;;;;;;4988542;28;20034;-75
2023/04/26 01:56:38;;;;;;;176.75;14.55;;;4.30;99.90;;;;;;4988646;28;20069;-73
2023/04/26 01:59:03;;;;;;;355.50;15.75;;;4.30;99.90;;;;;;4988419;28;20418;-74
2023/04/26 02:01:30;;;;;;;226.90;13.48;;;4.30;99.90;;;;;;4988879;28;20529;-73
2023/04/26 02:03:55;;;;;;;68.07;9.93;;;4.20;99.90;;;;;;4989396;28;20452;-75
2023/04/26 02:06:21;;;;;;;103.75;9.35;;;4.10;99.90;;;;;;4984589;28;20041;-75
2023/04/26 02:08:48;;;;;;;61.03;9.20;;;4.10;99.90;;;;;;4984214;28;20062;-75
2023/04/26 02:11:13;;;;;;;47.67;9.18;;;4.10;99.90;;;;;;4988494;28;20033;-74
2023/04/26 02:13:39;;;;;;;18.52;8.98;;;4.00;99.90;;;;;;4972010;28;20208;-75
2023/04/26 02:16:06;;;;;;;33.08;10.75;;;4.00;99.90;;;;;;4987395;28;20382;-74
2023/04/26 02:18:33;;;;;;;30.60;10.85;;;4.00;99.90;;;;;;4988588;28;20069;-74
2023/04/26 02:20:59;;;;;;;53.53;11.13;;;4.00;99.90;;;;;;4986704;28;20163;-75
2023/04/26 02:23:24;;;;;;;28.38;11.88;;;4.00;99.90;;;;;;4989150;28;20029;-74
2023/04/26 02:25:50;;;;;;;27.98;11.70;;;4.00;99.90;;;;;;4987708;28;20026;-74
2023/04/26 02:28:16;;;;;;;48.28;11.70;;;4.10;99.90;;;;;;4988165;28;20037;-74
2023/04/26 02:30:43;;;;;;;30.92;11.80;;;4.10;99.90;;;;;;4988097;28;20085;-75
2023/04/26 02:33:09;;;;;;;43.55;11.82;;;4.10;99.90;;;;;;4988888;28;20516;-74
2023/04/26 02:35:36;;;;;;;92.68;12.27;;;4.00;99.90;;;;;;4970980;28;20113;-74
2023/04/26 02:38:02;;;;;;;62.00;11.65;;;4.00;99.90;;;;;;4987242;28;20407;-75
2023/04/26 02:40:29;;;;;;;45.53;11.10;;;4.00;99.90;;;;;;4987375;28;20514;-74
2023/04/26 02:42:54;;;;;;;70.80;11.95;;;4.00;99.90;;;;;;4988672;28;20045;-75
2023/04/26 02:45:20;;;;;;;176.98;11.38;;;3.90;99.90;;;;;;4987838;28;20026;-74
2023/04/26 02:47:45;;;;;;;220.55;11.07;;;3.90;99.90;;;;;;4987608;28;20129;-74
2023/04/26 02:50:11;;;;;;;30.08;7.28;;;3.80;99.90;;;;;;4987077;28;20034;-75
2023/04/26 02:52:37;;;;;;;83.35;8.73;;;3.60;99.90;;;;;;4989408;28;20034;-73
2023/04/26 02:55:03;;;;;;;21.63;7.43;;;3.60;99.90;;;;;;4987153;28;20037;-74
2023/04/26 02:57:30;;;;;;;112.40;8.90;;;3.50;99.90;;;;;;4986195;28;20500;-75
2023/04/26 02:59:56;;;;;;;214.25;10.77;;;3.50;99.90;;;;;;4988124;28;20459;-76
2023/04/26 03:02:22;;;;;;;184.10;9.95;;;3.50;99.90;;;;;;4987698;28;20038;-75
2023/04/26 03:04:48;;;;;;;168.25;9.80;;;3.50;99.90;;;;;;4987197;28;20463;-75
2023/04/26 03:07:13;;;;;;;148.77;9.48;;;3.40;99.90;;;;;;4987044;28;20077;-75
2023/04/26 03:09:39;;;;;;;163.52;10.32;;;3.30;99.90;;;;;;4987855;28;20387;-74
2023/04/26 03:12:08;;;;;;;134.00;9.07;;;3.20;99.90;;;;;;4985409;28;20030;-74
2023/04/26 03:14:34;;;;;;;131.02;9.23;;;3.10;99.90;;;;;;4991532;28;20034;-74
2023/04/26 03:17:01;;;;;;;110.03;9.25;;;3.00;99.90;;;;;;4992556;28;20018;-75
2023/04/26 03:19:27;;;;;;;158.15;10.32;;;3.00;99.90;;;;;;4994690;28;20038;-74
2023/04/26 03:21:56;;;;;;;100.40;9.27;;;3.10;99.90;;;;;;4994935;28;20026;-75
2023/04/26 03:24:22;;;;;;;30.83;8.82;;;3.00;99.90;;;;;;4994925;28;20093;-75
2023/04/26 03:26:48;;;;;;;23.83;10.00;;;3.00;99.90;;;;;;4992701;28;20467;-75
2023/04/26 03:29:13;;;;;;;20.45;8.48;;;3.10;99.90;;;;;;4994185;28;20053;-75
2023/04/26 03:31:39;;;;;;;21.40;8.73;;;3.20;99.90;;;;;;4994620;28;20113;-74
2023/04/26 03:34:06;;;;;;;35.10;10.30;;;3.20;99.90;;;;;;4991677;28;20584;-74
2023/04/26 03:36:32;;;;;;;130.68;11.85;;;3.20;99.90;;;;;;4987981;28;20022;-75
2023/04/26 03:38:58;;;;;;;240.75;12.25;;;3.20;99.90;;;;;;4982378;28;20093;-76
2023/04/26 03:41:24;;;;;;;23.85;7.93;;;3.20;99.90;;;;;;4992307;28;20058;-75
2023/04/26 03:43:49;;;;;;;26.45;9.57;;;3.30;99.90;;;;;;4993873;28;20463;-75
2023/04/26 03:46:15;;;;;;;30.17;10.93;;;3.10;99.90;;;;;;4990097;28;20113;-74
2023/04/26 03:48:41;;;;;;;23.50;10.65;;;3.20;99.90;;;;;;4994491;28;20836;-75
2023/04/26 03:51:07;;;;;;;179.48;11.52;;;3.30;99.90;;;;;;4993156;28;20045;-74
2023/04/26 03:53:32;;;;;;;416.80;14.07;;;3.30;99.90;;;;;;4994432;28;20351;-75
2023/04/26 03:55:58;;;;;;;327.30;10.77;;;3.30;99.90;;;;;;4992601;28;20927;-75
2023/04/26 03:58:26;;;;;;;16.85;6.95;;;3.10;99.90;;;;;;4981574;28;20055;-75
2023/04/26 04:00:56;;;;;;;108.10;8.75;;;3.00;99.90;;;;;;4974984;28;20109;-71
2023/04/26 04:03:21;;;;;;;76.00;8.15;;;3.00;99.90;;;;;;4977392;28;20037;-72
2023/04/26 04:05:50;;;;;;;157.57;7.07;;;2.90;99.90;;;;;;4992434;28;20042;-74
2023/04/26 04:08:16;;;;;;;18.83;6.78;;;2.90;99.90;;;;;;4991996;28;20133;-72
2023/04/26 04:10:41;;;;;;;78.93;7.63;;;2.90;99.90;;;;;;4993786;28;20125;-72
2023/04/26 04:13:07;;;;;;;14.55;5.70;;;2.90;99.90;;;;;;4991925;28;20057;-74
2023/04/26 04:15:33;;;;;;;13.48;6.28;;;2.90;99.90;;;;;;4992161;28;20088;-78
2023/04/26 04:17:59;;;;;;;294.70;11.52;;;2.80;99.90;;;;;;4992310;28;20034;-73
2023/04/26 04:20:24;;;;;;;380.20;12.18;;;2.80;99.90;;;;;;4991269;28;20113;-74
2023/04/26 04:22:50;;;;;;;71.03;6.22;;;2.70;99.90;;;;;;4991990;28;20033;-72
2023/04/26 04:25:16;;;;;;;346.88;12.50;;;2.60;99.90;;;;;;4986277;28;20529;-71
2023/04/26 04:27:42;;;;;;;424.38;14.70;;;2.60;99.90;;;;;;4989731;28;20035;-75
2023/04/26 04:30:08;;;;;;;94.13;9.18;;;2.50;99.90;;;;;;4988961;28;20041;-77
2023/04/26 04:32:35;;;;;;;127.38;9.10;;;2.50;99.90;;;;;;4991614;28;20390;-73
2023/04/26 04:35:01;;;;;;;30.23;8.60;;;2.60;99.90;;;;;;4990636;28;20069;-75
2023/04/26 04:37:27;;;;;;;23.77;8.57;;;2.60;99.90;;;;;;4988908;28;20062;-74
2023/04/26 04:39:56;;;;;;;177.55;12.00;;;2.70;99.90;;;;;;4990446;28;20134;-74
2023/04/26 04:42:22;;;;;;;28.13;8.20;;;2.70;99.90;;;;;;4989508;28;20686;-72
2023/04/26 04:44:49;;;;;;;35.65;9.32;;;2.70;99.90;;;;;;4991541;28;20085;-71
2023/04/26 04:47:14;;;;;;;171.43;11.38;;;2.80;99.90;;;;;;4988838;28;20368;-71
2023/04/26 04:49:40;;;;;;;160.85;11.30;;;2.80;99.90;;;;;;4985999;28;20033;-75
2023/04/26 04:52:06;;;;;;;58.42;9.00;;;2.90;99.90;;;;;;4986763;28;20034;-76
2023/04/26 04:54:32;;;;;;;76.63;9.90;;;2.90;99.90;;;;;;4982788;28;20034;-76
2023/04/26 04:56:57;;;;;;;134.05;10.45;;;3.00;99.90;;;;;;5005121;28;20108;-74
2023/04/26 04:59:24;;;;;;;42.40;9.80;;;3.10;99.90;;;;;;4995138;28;20038;-72
2023/04/26 05:01:49;;;;;;;32.60;10.95;;;3.10;99.90;;;;;;4987801;28;20500;-72
2023/04/26 05:04:15;;;;;;;47.95;12.20;;;3.00;99.90;;;;;;4989186;28;20022;-73
2023/04/26 05:06:41;;;;;;;55.78;12.93;;;3.00;99.90;;;;;;4990203;28;20038;-72
2023/04/26 05:09:08;;;;;;;36.40;12.63;;;3.00;99.90;;;;;;4979994;28;20063;-71
2023/04/26 05:11:33;;;;;;;35.45;11.77;;;3.00;99.90;;;;;;4987778;28;20038;-76
2023/04/26 05:13:59;;;;;;;60.53;12.32;;;3.00;99.90;;;;;;4986588;28;20031;-74
2023/04/26 05:16:25;;;;;;;253.48;43.25;;;3.00;99.90;;;;;;4982835;28;20221;-74
2023/04/26 05:18:51;;;;;;;289.55;27.95;;;3.10;99.90;;;;;;4962552;28;20047;-75
2023/04/26 05:21:17;;;;;;;217.95;18.73;;;3.20;99.90;;;;;;4988175;28;20065;-77
2023/04/26 05:23:42;;;;;;;197.02;13.65;;;3.20;99.90;;;;;;4990403;28;20058;-73
2023/04/26 05:26:13;;;;;;;28.90;11.23;;;3.30;99.90;;;;;;4984458;28;20431;-74
2023/04/26 05:28:40;;;;;;;177.52;11.38;;;3.30;99.90;;;;;;4982318;28;20039;-71
2023/04/26 05:31:05;;;;;;;324.98;15.65;;;3.30;99.90;;;;;;4989360;28;20077;-74
2023/04/26 05:33:31;;;;;;;490.95;20.30;;;3.30;99.90;;;;;;4989647;28;20054;-73
2023/04/26 05:35:57;;;;;;;150.43;10.48;;;3.30;99.90;;;;;;4989396;28;20449;-77
2023/04/26 05:38:23;;;;;;;396.67;15.75;;;3.30;99.90;;;;;;4985712;28;20104;-74
2023/04/26 05:40:49;;;;;;;148.10;10.73;;;3.10;99.90;;;;;;4988871;28;20034;-74
2023/04/26 05:43:15;;;;;;;303.20;13.20;;;3.10;99.90;;;;;;4989139;28;20032;-74
2023/04/26 05:45:52;;;;;;;91.35;10.45;;;3.20;99.90;;;;;;4989644;28;20378;-74
2023/04/26 05:48:20;;;;;;;269.23;12.68;;;3.30;99.90;;;;;;4986310;28;20416;-72
2023/04/26 05:50:45;;;;;;;118.63;10.77;;;3.40;99.90;;;;;;4987187;28;20026;-71
2023/04/26 05:53:11;;;;;;;235.60;13.13;;;3.40;99.90;;;;;;4989377;28;20470;-70
2023/04/26 05:55:37;;;;;;;242.82;13.07;;;3.30;99.90;;;;;;4988768;28;20030;-73
2023/04/26 05:58:03;;;;;;;131.65;11.95;;;3.40;99.90;;;;;;4990197;28;20072;-74
2023/04/26 06:00:29;;;;;;;29.13;10.05;;;3.30;99.90;;;;;;4988627;28;20026;-70
2023/04/26 06:02:55;;;;;;;21.45;9.85;;;3.40;99.90;;;;;;4989377;28;20030;-73
2023/04/26 06:05:21;;;;;;;116.78;12.23;;;3.50;99.90;;;;;;4988600;28;20049;-72
2023/04/26 06:07:47;;;;;;;35.97;12.25;;;3.70;99.90;;;;;;5004615;28;20414;-71
2023/04/26 06:10:12;;;;;;;44.30;14.23;;;3.80;99.90;;;;;;4988728;28;20065;-70
2023/04/26 06:12:41;;;;;;;36.30;11.98;;;3.90;99.90;;;;;;4989548;28;20030;-71
2023/04/26 06:15:07;;;;;;;54.83;12.68;;;4.10;99.90;;;;;;4988658;28;20104;-70
2023/04/26 06:17:32;;;;;;;61.80;20.63;;;4.20;99.90;;;;;;4988907;28;20030;-72
2023/04/26 06:19:58;;;;;;;493.20;21.70;;;4.30;99.90;;;;;;4988827;28;20034;-72
2023/04/26 06:22:23;;;;;;;39.92;11.55;;;4.30;99.90;;;;;;5006630;28;20059;-72
2023/04/26 06:24:50;;;;;;;533.20;19.85;;;4.40;99.90;;;;;;5007266;28;20034;-71
2023/04/26 06:27:15;;;;;;;47.50;17.42;;;4.40;99.90;;;;;;4988462;28;20084;-69
2023/04/26 06:29:42;;;;;;;561.22;21.30;;;4.40;99.90;;;;;;4987956;28;20043;-70
2023/04/26 06:32:08;;;;;;;102.13;16.40;;;4.40;99.90;;;;;;4989020;28;20113;-70
2023/04/26 06:34:35;;;;;;;47.90;13.70;;;4.50;99.90;;;;;;4986323;28;20099;-70
2023/04/26 06:37:00;;;;;;;384.55;19.15;;;4.50;99.90;;;;;;4989382;28;20171;-72
2023/04/26 06:39:26;;;;;;;163.00;16.67;;;4.70;99.90;;;;;;4989510;28;20149;-72
2023/04/26 06:41:52;;;;;;;74.30;17.77;;;4.80;99.90;;;;;;4989079;28;20765;-71
2023/04/26 06:44:17;;;;;;;90.68;31.38;;;5.10;99.90;;;;;;4966012;28;20026;-71
2023/04/26 06:46:43;;;;;;;41.42;16.33;;;5.30;99.90;;;;;;4989095;28;20030;-73
2023/04/26 06:49:10;;;;;;;31.70;13.30;;;5.50;99.90;;;;;;4987426;28;20093;-72
2023/04/26 06:51:35;;;;;;;577.92;25.77;;;5.60;99.90;;;;;;4988165;28;20494;-73
2023/04/26 06:54:01;;;;;;;30.48;14.70;;;5.60;99.90;;;;;;4987123;28;20034;-73
2023/04/26 06:56:27;;;;;;;90.85;15.57;;;5.60;99.90;;;;;;4997325;28;20055;-70
2023/04/26 06:59:03;;;;;;;29.58;13.98;;;5.70;99.90;;;;;;4988099;28;20482;-72
2023/04/26 07:01:32;;;;;;;38.58;18.55;;;5.90;99.90;;;;;;4969923;28;20119;-73
2023/04/26 07:04:00;;;;;;;26.42;12.02;;;6.10;99.90;;;;;;4989260;28;20371;-73
2023/04/26 07:06:26;;;;;;;22.08;8.57;;;6.30;99.90;;;;;;4969798;28;20034;-73
2023/04/26 07:08:51;;;;;;;21.77;9.10;;;6.30;99.90;;;;;;4988561;28;20054;-73
2023/04/26 07:11:18;;;;;;;20.15;8.90;;;6.40;99.90;;;;;;4987121;28;20026;-72
2023/04/26 07:13:43;;;;;;;19.88;8.93;;;6.70;99.90;;;;;;4980914;28;20177;-72
2023/04/26 07:16:09;;;;;;;16.25;7.38;;;6.90;99.90;;;;;;4988106;28;20484;-71
2023/04/26 07:18:35;;;;;;;19.35;6.93;;;7.00;99.90;;;;;;4985190;28;20068;-71
2023/04/26 07:21:00;;;;;;;16.45;7.50;;;7.00;99.90;;;;;;4967108;28;20564;-73
2023/04/26 07:23:27;;;;;;;18.75;7.20;;;7.10;99.90;;;;;;4980525;28;20062;-70
2023/04/26 07:25:53;;;;;;;13.75;6.32;;;7.20;99.90;;;;;;4986562;28;20109;-71
2023/04/26 07:28:19;;;;;;;12.90;6.07;;;7.40;99.90;;;;;;4987240;28;20476;-71
2023/04/26 07:30:44;;;;;;;13.73;6.25;;;7.40;99.90;;;;;;4986497;28;20030;-71
2023/04/26 07:33:10;;;;;;;10.65;4.07;;;7.60;99.90;;;;;;4985271;28;20030;-72
2023/04/26 07:35:35;;;;;;;9.68;4.45;;;7.50;99.90;;;;;;4987369;28;20412;-72
2023/04/26 07:38:02;;;;;;;12.40;4.80;;;7.50;99.90;;;;;;4984505;28;20035;-73
2023/04/26 07:40:28;;;;;;;7.25;3.47;;;7.70;99.90;;;;;;4986868;28;20049;-69
2023/04/26 07:42:54;;;;;;;9.25;3.72;;;7.70;99.90;;;;;;4986852;28;20557;-73
2023/04/26 07:45:20;;;;;;;15.30;5.35;;;7.70;99.90;;;;;;4994903;28;20058;-70
2023/04/26 07:47:46;;;;;;;8.68;3.20;;;7.70;99.90;;;;;;4970498;28;20141;-70
2023/04/26 07:50:12;;;;;;;16.52;6.07;;;7.90;99.90;;;;;;4986118;28;20078;-71
2023/04/26 07:52:38;;;;;;;6.28;3.05;;;8.10;99.90;;;;;;4985907;28;20030;-71
2023/04/26 07:55:04;;;;;;;15.93;5.50;;;8.20;99.90;;;;;;4969683;28;20053;-71
2023/04/26 07:57:30;;;;;;;13.38;5.60;;;8.20;99.90;;;;;;4985630;28;20125;-71
2023/04/26 07:59:56;;;;;;;12.23;4.07;;;8.30;99.90;;;;;;4981767;28;20114;-73
2023/04/26 08:02:22;;;;;;;12.95;4.00;;;8.30;99.90;;;;;;4978489;28;20576;-71
2023/04/26 08:04:49;;;;;;;12.10;4.57;;;8.30;99.90;;;;;;4986394;28;20034;-72
2023/04/26 08:07:15;;;;;;;10.20;3.67;;;8.40;99.90;;;;;;4990793;28;20383;-72
2023/04/26 08:09:40;;;;;;;8.20;4.13;;;8.80;99.90;;;;;;4988857;28;20065;-71
2023/04/26 08:12:06;;;;;;;8.45;4.00;;;8.70;99.90;;;;;;4989495;28;20053;-71
2023/04/26 08:14:34;;;;;;;10.35;4.00;;;8.50;99.90;;;;;;4989895;28;20705;-72
2023/04/26 08:17:00;;;;;;;10.63;4.90;;;8.50;99.90;;;;;;4991527;28;20101;-72
2023/04/26 08:19:29;;;;;;;11.25;4.80;;;8.50;99.90;;;;;;4989474;28;20034;-71
2023/04/26 08:21:55;;;;;;;13.02;5.18;;;8.60;99.90;;;;;;4988364;28;20045;-74
2023/04/26 08:24:21;;;;;;;9.10;4.35;;;8.70;99.90;;;;;;4985926;28;20034;-71
2023/04/26 08:26:47;;;;;;;12.35;4.57;;;9.00;99.90;;;;;;4988054;28;20034;-72
2023/04/26 08:29:13;;;;;;;10.75;4.50;;;9.20;99.90;;;;;;4970686;28;20494;-72
2023/04/26 08:31:39;;;;;;;13.07;4.88;;;9.30;99.90;;;;;;4987400;28;20034;-71
2023/04/26 08:34:05;;;;;;;13.85;4.85;;;9.40;99.90;;;;;;4990049;28;20034;-72
2023/04/26 08:36:34;;;;;;;12.02;4.93;;;9.30;99.90;;;;;;4986972;28;20035;-72
2023/04/26 08:39:00;;;;;;;10.80;4.25;;;9.30;99.90;;;;;;4990126;28;20046;-72
2023/04/26 08:41:27;;;;;;;12.93;4.97;;;9.10;99.90;;;;;;4992659;28;20068;-71
2023/04/26 08:43:54;;;;;;;10.52;4.70;;;9.10;99.90;;;;;;4988749;28;20435;-71
2023/04/26 08:46:22;;;;;;;10.40;5.35;;;9.10;99.90;;;;;;4985218;28;20102;-71
2023/04/26 08:49:02;;;;;;;16.80;5.20;;;9.20;99.90;;;;;;4977902;28;20050;-74
2023/04/26 08:51:30;;;;;;;12.93;4.80;;;9.50;99.90;;;;;;4989299;28;20502;-72
2023/04/26 08:53:58;;;;;;;11.80;4.75;;;9.50;99.90;;;;;;4986077;28;20038;-72
2023/04/26 08:56:24;;;;;;;13.75;5.35;;;9.50;99.90;;;;;;4987714;28;20046;-72
2023/04/26 08:58:50;;;;;;;10.25;4.85;;;9.40;99.90;;;;;;4980488;28;20111;-72
2023/04/26 09:01:18;;;;;;;11.50;4.75;;;9.40;99.90;;;;;;4980921;28;20031;-71
2023/04/26 09:03:44;;;;;;;12.48;4.72;;;9.40;99.90;;;;;;4988802;28;20048;-72
2023/04/26 09:06:10;;;;;;;11.35;4.60;;;9.60;99.90;;;;;;4990306;28;20026;-72
2023/04/26 09:08:40;;;;;;;13.75;5.13;;;9.80;99.90;;;;;;4988218;28;20062;-77
2023/04/26 09:11:06;;;;;;;16.00;4.80;;;10.00;99.90;;;;;;4986843;28;20038;-75
2023/04/26 09:13:31;;;;;;;10.80;4.47;;;9.90;99.90;;;;;;4985346;28;20281;-73
2023/04/26 09:15:57;;;;;;;9.20;4.78;;;10.00;99.90;;;;;;4988783;28;20467;-73
2023/04/26 09:18:23;;;;;;;19.25;5.78;;;10.30;99.90;;;;;;4989181;28;20058;-72
2023/04/26 09:21:08;;;;;;;13.45;5.22;;;10.50;99.90;;;;;;4986815;28;20038;-74
2023/04/26 09:23:34;;;;;;;12.40;5.60;;;10.60;99.90;;;;;;4971587;28;20061;-73
2023/04/26 09:26:20;;;;;;;11.77;5.18;;;10.50;99.90;;;;;;4989802;28;20438;-74
2023/04/26 09:28:46;;;;;;;10.13;5.03;;;9.90;99.90;;;;;;4988596;28;20391;-72
2023/04/26 09:31:42;;;;;;;9.90;4.75;;;9.80;99.90;;;;;;4986376;28;20172;-72
2023/04/26 09:34:12;;;;;;;9.10;4.63;;;9.90;99.90;;;;;;4988221;28;20046;-74
2023/04/26 09:36:52;;;;;;;10.35;3.92;;;10.00;99.90;;;;;;4988952;28;20023;-69
2023/04/26 09:39:31;;;;;;;7.63;4.30;;;10.10;99.90;;;;;;4979283;28;20039;-71
2023/04/26 09:41:57;;;;;;;13.32;4.65;;;10.30;99.90;;;;;;4988131;28;20037;-72
2023/04/26 09:44:24;;;;;;;12.45;4.45;;;10.40;99.90;;;;;;4988162;28;20032;-74
2023/04/26 09:47:05;;;;;;;14.07;4.30;;;10.20;99.90;;;;;;4990211;28;20076;-72
2023/04/26 09:49:47;;;;;;;9.68;3.83;;;9.70;99.90;;;;;;4981180;28;20026;-75
2023/04/26 09:52:15;;;;;;;11.13;4.15;;;9.30;99.90;;;;;;4988777;28;20030;-75
2023/04/26 09:54:46;;;;;;;15.13;4.25;;;9.10;99.90;;;;;;4989100;28;20014;-76
2023/04/26 09:57:13;;;;;;;11.20;4.05;;;9.50;99.90;;;;;;4987739;28;20030;-72
2023/04/26 09:59:50;;;;;;;11.40;4.35;;;10.00;99.90;;;;;;4985682;28;20030;-73
2023/04/26 10:02:21;;;;;;;18.25;4.28;;;9.90;99.90;;;;;;4997537;28;20029;-71
2023/04/26 10:04:48;;;;;;;;;;;9.90;99.90;;;;;;5000175;28;20053;-72
2023/04/26 10:07:16;;;;;;;8.38;3.72;;;10.50;99.90;;;;;;4989924;28;19913;-74
2023/04/26 10:09:42;;;;;;;9.25;3.78;;;10.90;99.90;;;;;;4987528;28;20157;-72
2023/04/26 10:12:12;;;;;;;16.13;3.95;;;10.70;99.90;;;;;;4988738;28;20027;-72
2023/04/26 10:14:38;;;;;;;8.20;3.85;;;10.90;99.90;;;;;;4988387;28;20033;-72
2023/04/26 10:17:04;;;;;;;8.82;3.72;;;10.40;99.90;;;;;;4987902;28;20117;-72
2023/04/26 10:19:35;;;;;;;12.02;3.50;;;10.00;99.90;;;;;;4993077;28;20058;-72
2023/04/26 10:22:09;;;;;;;6.20;3.38;;;10.30;99.90;;;;;;4988260;28;20092;-73
2023/04/26 10:24:36;;;;;;;11.77;3.80;;;10.50;99.90;;;;;;4969700;28;20022;-72
2023/04/26 10:27:03;;;;;;;9.13;3.58;;;10.20;99.90;;;;;;4981947;28;20065;-72
2023/04/26 10:29:53;;;;;;;11.38;3.92;;;10.30;99.90;;;;;;4982692;28;20093;-72
2023/04/26 10:32:23;;;;;;;7.28;3.42;;;10.40;99.90;;;;;;4985404;28;20121;-71
2023/04/26 10:35:18;;;;;;;9.93;3.65;;;11.00;99.90;;;;;;4987638;28;20057;-74
2023/04/26 10:37:59;;;;;;;12.70;3.85;;;11.70;99.90;;;;;;4962927;28;20483;-74
2023/04/26 10:40:32;;;;;;;11.45;3.85;;;12.00;99.90;;;;;;4985285;28;20034;-76
2023/04/26 10:43:10;;;;;;;11.32;4.20;;;12.10;99.90;;;;;;4985895;28;20027;-74
2023/04/26 10:45:37;;;;;;;9.25;3.72;;;11.80;99.90;;;;;;4987233;28;20060;-79
2023/04/26 10:48:30;;;;;;;7.45;3.30;;;11.70;99.90;;;;;;4987379;28;20092;-78
2023/04/26 10:51:06;;;;;;;5.15;3.08;;;11.60;99.90;;;;;;4967648;28;20077;-76
2023/04/26 10:53:52;;;;;;;7.07;3.20;;;11.60;99.90;;;;;;4999053;28;20022;-76
2023/04/26 10:56:27;;;;;;;6.28;2.72;;;11.50;99.90;;;;;;4974670;28;20112;-77
2023/04/26 10:59:12;;;;;;;7.13;2.78;;;11.40;99.90;;;;;;4989132;28;20029;-76
2023/04/26 11:01:39;;;;;;;5.63;2.60;;;11.50;99.90;;;;;;4986996;28;20105;-77
2023/04/26 11:04:09;;;;;;;7.88;3.00;;;11.40;99.90;;;;;;4988538;28;20380;-75
2023/04/26 11:06:51;;;;;;;6.60;2.38;;;11.40;99.90;;;;;;4983222;28;20114;-70
2023/04/26 11:09:38;;;;;;;9.15;2.80;;;11.40;99.90;;;;;;4982879;28;20233;-76
2023/04/26 11:12:15;;;;;;;8.57;2.92;;;11.20;99.90;;;;;;4986028;28;20080;-76
2023/04/26 11:14:42;;;;;;;7.88;2.70;;;11.20;99.90;;;;;;4987266;28;20030;-72
2023/04/26 11:17:08;;;;;;;11.57;3.40;;;11.40;99.90;;;;;;4975796;28;20031;-75
2023/04/26 11:19:34;;;;;;;7.60;3.00;;;11.60;99.90;;;;;;4969470;28;20096;-73
2023/04/26 11:22:01;;;;;;;5.45;2.90;;;11.70;99.90;;;;;;4969977;28;20423;-72
2023/04/26 11:24:30;;;;;;;6.35;2.80;;;11.90;99.90;;;;;;4987410;28;20089;-77
2023/04/26 11:26:57;;;;;;;5.78;2.75;;;11.90;99.90;;;;;;4988083;28;20421;-75
2023/04/26 11:29:23;;;;;;;7.38;3.08;;;11.80;99.90;;;;;;4969888;28;20038;-71
2023/04/26 11:31:56;;;;;;;10.45;3.20;;;11.20;99.90;;;;;;4988080;28;20475;-72
2023/04/26 11:34:33;;;;;;;7.20;2.83;;;11.10;99.90;;;;;;4989020;28;20042;-75
2023/04/26 11:37:00;;;;;;;5.32;2.95;;;11.20;99.90;;;;;;4973977;28;20041;-75
2023/04/26 11:39:26;;;;;;;11.82;3.35;;;10.90;99.90;;;;;;4991272;28;20034;-77
2023/04/26 11:42:07;;;;;;;14.80;3.58;;;10.90;99.90;;;;;;4990214;28;20038;-75
2023/04/26 11:44:34;;;;;;;10.10;3.03;;;11.20;99.90;;;;;;4989706;28;20030;-75
2023/04/26 11:47:06;;;;;;;8.45;3.08;;;11.40;99.90;;;;;;5000695;28;20031;-75
2023/04/26 11:49:35;;;;;;;5.20;2.70;;;11.70;99.90;;;;;;4973955;28;20034;-74
2023/04/26 11:52:02;;;;;;;8.63;2.70;;;12.00;99.90;;;;;;4972101;28;20110;-73
2023/04/26 11:54:33;;;;;;;5.55;2.83;;;12.00;99.90;;;;;;4990714;28;20061;-71
2023/04/26 11:56:59;;;;;;;7.43;2.72;;;12.10;99.90;;;;;;4991424;28;20037;-74
2023/04/26 11:59:29;;;;;;;7.00;3.13;;;12.50;97.20;;;;;;4992071;28;20030;-71
2023/04/26 12:02:00;;;;;;;7.40;3.30;;;12.70;97.10;;;;;;4990188;28;20077;-74
2023/04/26 12:04:30;;;;;;;9.27;2.83;;;12.70;95.50;;;;;;4976539;28;20324;-72
2023/04/26 12:06:56;;;;;;;6.10;2.60;;;12.50;93.50;;;;;;4992044;28;20049;-74
2023/04/26 12:09:23;;;;;;;7.03;2.50;;;12.20;96.30;;;;;;4990962;28;20415;-71
2023/04/26 12:12:06;;;;;;;7.95;3.38;;;12.10;97.40;;;;;;4989437;28;20041;-74
2023/04/26 12:14:36;;;;;;;10.02;3.00;;;11.50;98.10;;;;;;4976643;28;20041;-73
2023/04/26 12:17:03;;;;;;;9.55;3.03;;;11.30;98.30;;;;;;4990606;28;20081;-75
2023/04/26 12:19:38;;;;;;;14.40;2.63;;;11.60;98.20;;;;;;4991096;28;20065;-72
2023/04/26 12:22:07;;;;;;;7.03;2.63;;;11.50;97.90;;;;;;4989389;28;20038;-75
2023/04/26 12:24:35;;;;;;;7.07;2.90;;;11.50;97.40;;;;;;5010092;28;20112;-75
2023/04/26 12:27:05;;;;;;;6.55;3.20;;;11.40;98.40;;;;;;4996371;28;20041;-76
2023/04/26 12:29:32;;;;;;;6.65;2.90;;;11.40;99.90;;;;;;4990819;28;20045;-71
2023/04/26 12:31:58;;;;;;;11.38;3.03;;;11.60;99.90;;;;;;4987956;28;20041;-70
2023/04/26 12:34:24;;;;;;;11.70;3.15;;;11.50;99.90;;;;;;4989730;28;20034;-74
2023/04/26 12:36:50;;;;;;;8.68;3.15;;;11.40;99.90;;;;;;5003896;28;20131;-74
2023/04/26 12:39:15;;;;;;;7.47;2.95;;;11.70;98.00;;;;;;4988090;28;20037;-74
2023/04/26 12:41:42;;;;;;;11.82;3.35;;;12.00;99.90;;;;;;4987728;28;20177;-74
2023/04/26 12:44:09;;;;;;;6.70;2.97;;;11.90;97.80;;;;;;4991381;28;20034;-74